sensor_id;sensor_type;location;lat;lon;timestamp;temperature;humidity
10294;DHT22;5192;50.328;7.610;2023-04-03T00:01:28;3.00;19.30
10294;DHT22;5192;50.328;7.610;2023-04-03T00:03:55;3.00;17.40
10294;DHT22;5192;50.328;7.610;2023-04-03T00:06:22;3.10;18.00
10294;DHT22;5192;50.328;7.610;2023-04-03T00:08:50;3.10;19.30
10294;DHT22;5192;50.328;7.610;2023-04-03T00:11:17;3.10;20.40
10294;DHT22;5192;50.328;7.610;2023-04-03T00:13:45;3.20;21.50
10294;DHT22;5192;50.328;7.610;2023-04-03T00:16:11;3.20;20.40
10294;DHT22;5192;50.328;7.610;2023-04-03T00:18:39;3.20;20.80
10294;DHT22;5192;50.328;7.610;2023-04-03T00:21:07;3.20;21.30
10294;DHT22;5192;50.328;7.610;2023-04-03T00:23:36;3.20;19.80
10294;DHT22;5192;50.328;7.610;2023-04-03T00:26:02;3.20;18.20
10294;DHT22;5192;50.328;7.610;2023-04-03T00:28:29;3.30;20.00
10294;DHT22;5192;50.328;7.610;2023-04-03T00:30:55;3.30;18.50
10294;DHT22;5192;50.328;7.610;2023-04-03T00:33:23;3.30;15.20
10294;DHT22;5192;50.328;7.610;2023-04-03T00:35:52;3.30;15.50
10294;DHT22;5192;50.328;7.610;2023-04-03T00:38:18;3.30;16.10
10294;DHT22;5192;50.328;7.610;2023-04-03T00:40:47;3.40;18.00
10294;DHT22;5192;50.328;7.610;2023-04-03T00:43:21;3.40;19.10
10294;DHT22;5192;50.328;7.610;2023-04-03T00:45:52;3.40;21.20
10294;DHT22;5192;50.328;7.610;2023-04-03T00:48:28;3.40;21.20
10294;DHT22;5192;50.328;7.610;2023-04-03T00:50:57;3.40;20.60
10294;DHT22;5192;50.328;7.610;2023-04-03T00:54:02;3.40;21.80
10294;DHT22;5192;50.328;7.610;2023-04-03T00:56:25;3.40;21.80
10294;DHT22;5192;50.328;7.610;2023-04-03T01:01:42;3.40;21.50
10294;DHT22;5192;50.328;7.610;2023-04-03T01:06:55;3.40;18.80
10294;DHT22;5192;50.328;7.610;2023-04-03T01:09:23;3.40;19.50
10294;DHT22;5192;50.328;7.610;2023-04-03T01:11:50;3.50;20.40
10294;DHT22;5192;50.328;7.610;2023-04-03T01:14:15;3.40;20.80
10294;DHT22;5192;50.328;7.610;2023-04-03T01:16:51;3.40;21.70
10294;DHT22;5192;50.328;7.610;2023-04-03T01:19:22;3.50;22.50
10294;DHT22;5192;50.328;7.610;2023-04-03T01:22:21;3.50;23.60
10294;DHT22;5192;50.328;7.610;2023-04-03T01:24:58;3.50;23.80
10294;DHT22;5192;50.328;7.610;2023-04-03T01:27:28;3.50;23.70
10294;DHT22;5192;50.328;7.610;2023-04-03T01:29:55;3.40;22.20
10294;DHT22;5192;50.328;7.610;2023-04-03T01:32:23;3.40;23.10
10294;DHT22;5192;50.328;7.610;2023-04-03T01:34:51;3.50;24.20
10294;DHT22;5192;50.328;7.610;2023-04-03T01:37:19;3.50;24.80
10294;DHT22;5192;50.328;7.610;2023-04-03T01:39:48;3.40;24.30
10294;DHT22;5192;50.328;7.610;2023-04-03T01:42:13;3.40;23.80
10294;DHT22;5192;50.328;7.610;2023-04-03T01:44:40;3.40;24.40
10294;DHT22;5192;50.328;7.610;2023-04-03T01:47:07;3.40;24.30
10294;DHT22;5192;50.328;7.610;2023-04-03T01:49:34;3.40;24.40
10294;DHT22;5192;50.328;7.610;2023-04-03T01:52:02;3.40;24.20
10294;DHT22;5192;50.328;7.610;2023-04-03T01:54:29;3.30;20.90
10294;DHT22;5192;50.328;7.610;2023-04-03T01:56:56;3.40;22.40
10294;DHT22;5192;50.328;7.610;2023-04-03T01:59:25;3.40;23.30
10294;DHT22;5192;50.328;7.610;2023-04-03T02:01:53;3.30;23.70
10294;DHT22;5192;50.328;7.610;2023-04-03T02:04:19;3.30;24.00
10294;DHT22;5192;50.328;7.610;2023-04-03T02:06:46;3.40;23.80
10294;DHT22;5192;50.328;7.610;2023-04-03T02:09:14;3.40;23.80
10294;DHT22;5192;50.328;7.610;2023-04-03T02:11:41;3.40;24.90
10294;DHT22;5192;50.328;7.610;2023-04-03T02:14:09;3.40;22.50
10294;DHT22;5192;50.328;7.610;2023-04-03T02:16:37;3.30;22.10
10294;DHT22;5192;50.328;7.610;2023-04-03T02:19:04;3.40;23.10
10294;DHT22;5192;50.328;7.610;2023-04-03T02:21:33;3.30;22.10
10294;DHT22;5192;50.328;7.610;2023-04-03T02:23:59;3.30;22.70
10294;DHT22;5192;50.328;7.610;2023-04-03T02:26:28;3.30;23.60
10294;DHT22;5192;50.328;7.610;2023-04-03T02:28:54;3.30;24.00
10294;DHT22;5192;50.328;7.610;2023-04-03T02:31:21;3.30;25.50
10294;DHT22;5192;50.328;7.610;2023-04-03T02:33:47;3.30;25.00
10294;DHT22;5192;50.328;7.610;2023-04-03T02:36:12;3.30;25.40
10294;DHT22;5192;50.328;7.610;2023-04-03T02:38:39;3.20;25.00
10294;DHT22;5192;50.328;7.610;2023-04-03T02:41:08;3.20;25.10
10294;DHT22;5192;50.328;7.610;2023-04-03T02:43:37;3.30;26.40
10294;DHT22;5192;50.328;7.610;2023-04-03T02:46:04;3.30;27.10
10294;DHT22;5192;50.328;7.610;2023-04-03T02:48:32;3.10;24.80
10294;DHT22;5192;50.328;7.610;2023-04-03T02:50:59;3.20;26.30
10294;DHT22;5192;50.328;7.610;2023-04-03T02:53:28;3.20;27.50
10294;DHT22;5192;50.328;7.610;2023-04-03T02:55:55;3.20;27.40
10294;DHT22;5192;50.328;7.610;2023-04-03T02:58:23;3.20;27.80
10294;DHT22;5192;50.328;7.610;2023-04-03T03:00:52;3.20;28.20
10294;DHT22;5192;50.328;7.610;2023-04-03T03:03:21;3.20;28.00
10294;DHT22;5192;50.328;7.610;2023-04-03T03:06:01;3.10;26.60
10294;DHT22;5192;50.328;7.610;2023-04-03T03:08:28;3.10;26.60
10294;DHT22;5192;50.328;7.610;2023-04-03T03:10:56;3.10;26.80
10294;DHT22;5192;50.328;7.610;2023-04-03T03:13:26;3.10;26.10
10294;DHT22;5192;50.328;7.610;2023-04-03T03:15:52;3.10;26.40
10294;DHT22;5192;50.328;7.610;2023-04-03T03:18:24;3.00;26.30
10294;DHT22;5192;50.328;7.610;2023-04-03T03:20:55;3.00;27.00
10294;DHT22;5192;50.328;7.610;2023-04-03T03:23:25;3.00;27.10
10294;DHT22;5192;50.328;7.610;2023-04-03T03:26:03;3.00;26.80
10294;DHT22;5192;50.328;7.610;2023-04-03T03:28:32;2.90;26.40
10294;DHT22;5192;50.328;7.610;2023-04-03T03:31:00;2.80;26.50
10294;DHT22;5192;50.328;7.610;2023-04-03T03:33:26;2.80;26.40
10294;DHT22;5192;50.328;7.610;2023-04-03T03:35:53;2.80;26.60
10294;DHT22;5192;50.328;7.610;2023-04-03T03:38:20;2.70;27.40
10294;DHT22;5192;50.328;7.610;2023-04-03T03:40:48;2.70;27.50
10294;DHT22;5192;50.328;7.610;2023-04-03T03:43:16;2.70;26.90
10294;DHT22;5192;50.328;7.610;2023-04-03T03:45:41;2.60;27.30
10294;DHT22;5192;50.328;7.610;2023-04-03T03:48:09;2.60;27.40
10294;DHT22;5192;50.328;7.610;2023-04-03T03:50:35;2.60;27.10
10294;DHT22;5192;50.328;7.610;2023-04-03T03:53:01;2.60;27.80
10294;DHT22;5192;50.328;7.610;2023-04-03T03:55:29;2.60;27.90
10294;DHT22;5192;50.328;7.610;2023-04-03T03:57:57;2.60;27.50
10294;DHT22;5192;50.328;7.610;2023-04-03T04:00:24;2.50;27.20
10294;DHT22;5192;50.328;7.610;2023-04-03T04:02:50;2.50;27.30
10294;DHT22;5192;50.328;7.610;2023-04-03T04:05:17;2.50;25.40
10294;DHT22;5192;50.328;7.610;2023-04-03T04:07:43;2.40;23.50
10294;DHT22;5192;50.328;7.610;2023-04-03T04:10:10;2.50;21.00
10294;DHT22;5192;50.328;7.610;2023-04-03T04:12:38;2.50;20.60
10294;DHT22;5192;50.328;7.610;2023-04-03T04:15:06;2.40;19.30
10294;DHT22;5192;50.328;7.610;2023-04-03T04:17:34;2.40;16.80
10294;DHT22;5192;50.328;7.610;2023-04-03T04:20:04;2.40;18.20
10294;DHT22;5192;50.328;7.610;2023-04-03T04:22:30;2.50;17.90
10294;DHT22;5192;50.328;7.610;2023-04-03T04:24:58;2.40;16.60
10294;DHT22;5192;50.328;7.610;2023-04-03T04:27:26;2.40;15.70
10294;DHT22;5192;50.328;7.610;2023-04-03T04:29:53;2.40;15.70
10294;DHT22;5192;50.328;7.610;2023-04-03T04:32:20;2.40;14.10
10294;DHT22;5192;50.328;7.610;2023-04-03T04:34:47;2.50;14.10
10294;DHT22;5192;50.328;7.610;2023-04-03T04:37:14;2.40;13.30
10294;DHT22;5192;50.328;7.610;2023-04-03T04:39:41;2.40;14.70
10294;DHT22;5192;50.328;7.610;2023-04-03T04:42:08;2.40;14.60
10294;DHT22;5192;50.328;7.610;2023-04-03T04:44:40;2.30;13.50
10294;DHT22;5192;50.328;7.610;2023-04-03T04:47:07;2.40;13.80
10294;DHT22;5192;50.328;7.610;2023-04-03T04:49:34;2.30;14.20
10294;DHT22;5192;50.328;7.610;2023-04-03T04:52:01;2.20;15.10
10294;DHT22;5192;50.328;7.610;2023-04-03T04:54:29;2.20;14.70
10294;DHT22;5192;50.328;7.610;2023-04-03T04:56:56;2.20;14.30
10294;DHT22;5192;50.328;7.610;2023-04-03T04:59:25;2.20;14.80
10294;DHT22;5192;50.328;7.610;2023-04-03T05:01:52;2.10;15.60
10294;DHT22;5192;50.328;7.610;2023-04-03T05:04:19;2.10;16.00
10294;DHT22;5192;50.328;7.610;2023-04-03T05:06:47;2.00;16.20
10294;DHT22;5192;50.328;7.610;2023-04-03T05:09:14;2.00;15.70
10294;DHT22;5192;50.328;7.610;2023-04-03T05:11:41;2.20;16.30
10294;DHT22;5192;50.328;7.610;2023-04-03T05:14:11;2.00;17.10
10294;DHT22;5192;50.328;7.610;2023-04-03T05:16:40;1.90;17.30
10294;DHT22;5192;50.328;7.610;2023-04-03T05:19:07;2.00;16.60
10294;DHT22;5192;50.328;7.610;2023-04-03T05:21:34;1.90;17.10
10294;DHT22;5192;50.328;7.610;2023-04-03T05:24:01;1.90;17.60
10294;DHT22;5192;50.328;7.610;2023-04-03T05:26:30;1.90;16.90
10294;DHT22;5192;50.328;7.610;2023-04-03T05:29:01;2.00;16.40
10294;DHT22;5192;50.328;7.610;2023-04-03T05:31:27;1.90;16.60
10294;DHT22;5192;50.328;7.610;2023-04-03T05:33:57;1.90;17.70
10294;DHT22;5192;50.328;7.610;2023-04-03T05:36:24;1.90;16.90
10294;DHT22;5192;50.328;7.610;2023-04-03T05:38:53;2.00;16.70
10294;DHT22;5192;50.328;7.610;2023-04-03T05:41:19;1.90;17.20
10294;DHT22;5192;50.328;7.610;2023-04-03T05:43:48;1.90;16.80
10294;DHT22;5192;50.328;7.610;2023-04-03T05:46:17;1.90;16.10
10294;DHT22;5192;50.328;7.610;2023-04-03T05:48:45;1.90;16.40
10294;DHT22;5192;50.328;7.610;2023-04-03T05:51:29;1.80;17.20
10294;DHT22;5192;50.328;7.610;2023-04-03T05:54:09;1.90;16.00
10294;DHT22;5192;50.328;7.610;2023-04-03T05:56:37;1.90;15.50
10294;DHT22;5192;50.328;7.610;2023-04-03T05:59:04;1.90;15.90
10294;DHT22;5192;50.328;7.610;2023-04-03T06:01:31;1.90;15.00
10294;DHT22;5192;50.328;7.610;2023-04-03T06:03:57;1.90;15.40
10294;DHT22;5192;50.328;7.610;2023-04-03T06:06:24;1.90;15.50
10294;DHT22;5192;50.328;7.610;2023-04-03T06:08:51;1.90;16.20
10294;DHT22;5192;50.328;7.610;2023-04-03T06:11:18;1.90;15.90
10294;DHT22;5192;50.328;7.610;2023-04-03T06:13:45;1.90;13.20
10294;DHT22;5192;50.328;7.610;2023-04-03T06:16:12;2.00;13.00
10294;DHT22;5192;50.328;7.610;2023-04-03T06:18:44;2.00;13.50
10294;DHT22;5192;50.328;7.610;2023-04-03T06:21:11;2.00;13.40
10294;DHT22;5192;50.328;7.610;2023-04-03T06:23:39;2.00;12.60
10294;DHT22;5192;50.328;7.610;2023-04-03T06:26:07;2.00;12.30
10294;DHT22;5192;50.328;7.610;2023-04-03T06:28:34;2.00;11.70
10294;DHT22;5192;50.328;7.610;2023-04-03T06:31:01;2.10;11.70
10294;DHT22;5192;50.328;7.610;2023-04-03T06:33:28;2.10;12.00
10294;DHT22;5192;50.328;7.610;2023-04-03T06:36:02;2.10;12.00
10294;DHT22;5192;50.328;7.610;2023-04-03T06:38:29;2.20;12.20
10294;DHT22;5192;50.328;7.610;2023-04-03T06:40:56;2.10;11.70
10294;DHT22;5192;50.328;7.610;2023-04-03T06:43:23;2.20;10.80
10294;DHT22;5192;50.328;7.610;2023-04-03T06:45:50;2.30;9.90
10294;DHT22;5192;50.328;7.610;2023-04-03T06:48:17;2.30;8.60
10294;DHT22;5192;50.328;7.610;2023-04-03T06:50:43;2.30;9.30
10294;DHT22;5192;50.328;7.610;2023-04-03T06:53:10;2.40;9.90
10294;DHT22;5192;50.328;7.610;2023-04-03T06:55:39;2.40;9.20
10294;DHT22;5192;50.328;7.610;2023-04-03T06:58:06;2.40;8.50
10294;DHT22;5192;50.328;7.610;2023-04-03T07:00:33;2.50;9.50
10294;DHT22;5192;50.328;7.610;2023-04-03T07:03:00;2.50;8.40
10294;DHT22;5192;50.328;7.610;2023-04-03T07:05:28;2.60;8.10
10294;DHT22;5192;50.328;7.610;2023-04-03T07:07:56;2.60;6.50
10294;DHT22;5192;50.328;7.610;2023-04-03T07:10:23;2.70;7.20
10294;DHT22;5192;50.328;7.610;2023-04-03T07:12:51;2.70;6.20
10294;DHT22;5192;50.328;7.610;2023-04-03T07:15:17;2.70;6.30
10294;DHT22;5192;50.328;7.610;2023-04-03T07:17:44;2.80;6.10
10294;DHT22;5192;50.328;7.610;2023-04-03T07:20:11;3.00;4.90
10294;DHT22;5192;50.328;7.610;2023-04-03T07:22:38;2.90;2.00
10294;DHT22;5192;50.328;7.610;2023-04-03T07:25:07;3.00;1.90
10294;DHT22;5192;50.328;7.610;2023-04-03T07:27:34;3.00;3.20
10294;DHT22;5192;50.328;7.610;2023-04-03T07:30:02;3.10;1.00
10294;DHT22;5192;50.328;7.610;2023-04-03T07:32:28;3.10;1.90
10294;DHT22;5192;50.328;7.610;2023-04-03T07:34:55;3.30;3.30
10294;DHT22;5192;50.328;7.610;2023-04-03T07:37:23;3.20;1.10
10294;DHT22;5192;50.328;7.610;2023-04-03T07:39:50;3.30;1.00
10294;DHT22;5192;50.328;7.610;2023-04-03T07:42:21;3.40;1.00
10294;DHT22;5192;50.328;7.610;2023-04-03T07:44:48;3.40;1.00
10294;DHT22;5192;50.328;7.610;2023-04-03T07:47:16;3.50;1.00
10294;DHT22;5192;50.328;7.610;2023-04-03T07:49:45;3.60;1.00
10294;DHT22;5192;50.328;7.610;2023-04-03T07:52:11;3.60;1.00
10294;DHT22;5192;50.328;7.610;2023-04-03T07:54:39;3.80;1.00
10294;DHT22;5192;50.328;7.610;2023-04-03T07:57:06;3.70;1.00
10294;DHT22;5192;50.328;7.610;2023-04-03T07:59:33;3.80;1.00
10294;DHT22;5192;50.328;7.610;2023-04-03T08:01:59;3.70;1.00
10294;DHT22;5192;50.328;7.610;2023-04-03T08:04:27;3.90;1.00
10294;DHT22;5192;50.328;7.610;2023-04-03T08:06:55;3.90;1.00
10294;DHT22;5192;50.328;7.610;2023-04-03T08:09:22;4.00;1.00
10294;DHT22;5192;50.328;7.610;2023-04-03T08:11:50;4.00;1.00
10294;DHT22;5192;50.328;7.610;2023-04-03T08:14:21;4.10;1.00
10294;DHT22;5192;50.328;7.610;2023-04-03T08:16:48;4.20;1.00
10294;DHT22;5192;50.328;7.610;2023-04-03T08:19:17;4.20;1.00
10294;DHT22;5192;50.328;7.610;2023-04-03T08:21:44;4.20;1.00
10294;DHT22;5192;50.328;7.610;2023-04-03T08:24:12;4.30;1.00
10294;DHT22;5192;50.328;7.610;2023-04-03T08:26:38;4.30;1.00
10294;DHT22;5192;50.328;7.610;2023-04-03T08:29:05;4.40;1.00
10294;DHT22;5192;50.328;7.610;2023-04-03T08:31:33;4.40;1.00
10294;DHT22;5192;50.328;7.610;2023-04-03T08:33:59;4.40;1.00
10294;DHT22;5192;50.328;7.610;2023-04-03T08:36:28;4.40;1.00
10294;DHT22;5192;50.328;7.610;2023-04-03T08:38:56;4.60;1.00
10294;DHT22;5192;50.328;7.610;2023-04-03T08:41:39;4.50;1.00
10294;DHT22;5192;50.328;7.610;2023-04-03T08:44:50;4.50;1.00
10294;DHT22;5192;50.328;7.610;2023-04-03T08:50:36;4.70;1.00
10294;DHT22;5192;50.328;7.610;2023-04-03T08:53:14;4.70;1.00
10294;DHT22;5192;50.328;7.610;2023-04-03T08:55:54;4.90;1.00
10294;DHT22;5192;50.328;7.610;2023-04-03T08:58:44;4.80;1.00
10294;DHT22;5192;50.328;7.610;2023-04-03T09:03:44;5.00;1.00
10294;DHT22;5192;50.328;7.610;2023-04-03T09:06:32;5.00;1.00
10294;DHT22;5192;50.328;7.610;2023-04-03T09:09:21;5.10;1.00
10294;DHT22;5192;50.328;7.610;2023-04-03T09:23:53;5.70;1.00
10294;DHT22;5192;50.328;7.610;2023-04-03T09:26:42;5.80;1.00
10294;DHT22;5192;50.328;7.610;2023-04-03T09:29:17;5.90;1.00
10294;DHT22;5192;50.328;7.610;2023-04-03T09:31:44;6.00;1.00
10294;DHT22;5192;50.328;7.610;2023-04-03T09:34:31;6.10;1.00
10294;DHT22;5192;50.328;7.610;2023-04-03T09:37:07;6.30;1.00
10294;DHT22;5192;50.328;7.610;2023-04-03T09:39:56;6.40;1.00
10294;DHT22;5192;50.328;7.610;2023-04-03T09:42:24;6.60;1.00
10294;DHT22;5192;50.328;7.610;2023-04-03T09:45:04;6.70;1.00
10294;DHT22;5192;50.328;7.610;2023-04-03T09:48:03;6.70;1.00
10294;DHT22;5192;50.328;7.610;2023-04-03T09:50:30;7.00;1.00
10294;DHT22;5192;50.328;7.610;2023-04-03T09:52:57;7.00;1.00
10294;DHT22;5192;50.328;7.610;2023-04-03T09:55:27;7.10;1.00
10294;DHT22;5192;50.328;7.610;2023-04-03T09:58:21;7.00;1.00
10294;DHT22;5192;50.328;7.610;2023-04-03T10:01:00;6.90;1.00
10294;DHT22;5192;50.328;7.610;2023-04-03T10:03:35;6.80;1.00
10294;DHT22;5192;50.328;7.610;2023-04-03T10:06:04;6.70;1.00
10294;DHT22;5192;50.328;7.610;2023-04-03T10:08:59;6.60;1.00
10294;DHT22;5192;50.328;7.610;2023-04-03T10:11:28;6.60;1.00
10294;DHT22;5192;50.328;7.610;2023-04-03T10:14:02;6.60;1.00
10294;DHT22;5192;50.328;7.610;2023-04-03T10:16:46;6.60;1.00
10294;DHT22;5192;50.328;7.610;2023-04-03T10:19:45;6.50;1.00
10294;DHT22;5192;50.328;7.610;2023-04-03T10:28:13;6.70;1.00
10294;DHT22;5192;50.328;7.610;2023-04-03T10:55:02;7.80;1.00
10294;DHT22;5192;50.328;7.610;2023-04-03T10:57:36;7.70;1.00
10294;DHT22;5192;50.328;7.610;2023-04-03T11:00:14;7.70;1.00
10294;DHT22;5192;50.328;7.610;2023-04-03T11:02:56;7.80;1.00
10294;DHT22;5192;50.328;7.610;2023-04-03T11:05:47;7.70;1.00
10294;DHT22;5192;50.328;7.610;2023-04-03T11:11:31;8.10;1.00
10294;DHT22;5192;50.328;7.610;2023-04-03T11:14:28;8.40;1.00
10294;DHT22;5192;50.328;7.610;2023-04-03T11:17:22;8.30;1.00
10294;DHT22;5192;50.328;7.610;2023-04-03T11:20:30;8.20;1.00
10294;DHT22;5192;50.328;7.610;2023-04-03T11:23:36;8.20;1.00
10294;DHT22;5192;50.328;7.610;2023-04-03T11:26:25;8.10;1.00
10294;DHT22;5192;50.328;7.610;2023-04-03T11:29:02;8.40;1.00
10294;DHT22;5192;50.328;7.610;2023-04-03T11:34:56;8.40;1.00
10294;DHT22;5192;50.328;7.610;2023-04-03T11:37:50;8.50;1.00
10294;DHT22;5192;50.328;7.610;2023-04-03T11:40:21;8.70;1.00
10294;DHT22;5192;50.328;7.610;2023-04-03T11:43:31;8.60;1.00
10294;DHT22;5192;50.328;7.610;2023-04-03T11:46:16;8.70;1.00
10294;DHT22;5192;50.328;7.610;2023-04-03T11:48:52;8.90;1.00
10294;DHT22;5192;50.328;7.610;2023-04-03T11:51:38;9.20;1.00
10294;DHT22;5192;50.328;7.610;2023-04-03T11:54:42;9.20;1.00
10294;DHT22;5192;50.328;7.610;2023-04-03T11:57:45;9.10;1.00
10294;DHT22;5192;50.328;7.610;2023-04-03T12:08:54;9.50;1.00
10294;DHT22;5192;50.328;7.610;2023-04-03T12:11:40;9.60;1.00
10294;DHT22;5192;50.328;7.610;2023-04-03T12:14:20;9.70;1.00
10294;DHT22;5192;50.328;7.610;2023-04-03T12:16:48;9.80;1.00
10294;DHT22;5192;50.328;7.610;2023-04-03T12:19:34;9.80;1.00
10294;DHT22;5192;50.328;7.610;2023-04-03T12:24:51;10.00;1.00
10294;DHT22;5192;50.328;7.610;2023-04-03T12:27:40;10.10;1.00
10294;DHT22;5192;50.328;7.610;2023-04-03T12:30:27;10.20;1.00
10294;DHT22;5192;50.328;7.610;2023-04-03T12:33:20;10.30;1.00
10294;DHT22;5192;50.328;7.610;2023-04-03T12:36:08;10.20;1.00
10294;DHT22;5192;50.328;7.610;2023-04-03T12:39:01;10.30;1.00
10294;DHT22;5192;50.328;7.610;2023-04-03T12:42:01;10.30;1.00
10294;DHT22;5192;50.328;7.610;2023-04-03T12:47:32;10.30;1.00
10294;DHT22;5192;50.328;7.610;2023-04-03T12:50:28;10.40;1.00
10294;DHT22;5192;50.328;7.610;2023-04-03T12:53:21;10.30;1.00
10294;DHT22;5192;50.328;7.610;2023-04-03T12:55:58;10.40;1.00
10294;DHT22;5192;50.328;7.610;2023-04-03T12:58:54;10.50;1.00
10294;DHT22;5192;50.328;7.610;2023-04-03T13:01:23;10.50;1.00
10294;DHT22;5192;50.328;7.610;2023-04-03T13:03:57;10.40;1.00
10294;DHT22;5192;50.328;7.610;2023-04-03T13:06:40;10.40;1.00
10294;DHT22;5192;50.328;7.610;2023-04-03T13:09:22;10.40;1.00
10294;DHT22;5192;50.328;7.610;2023-04-03T13:12:25;10.70;1.00
10294;DHT22;5192;50.328;7.610;2023-04-03T13:15:00;10.90;1.00
10294;DHT22;5192;50.328;7.610;2023-04-03T13:17:31;10.90;1.00
10294;DHT22;5192;50.328;7.610;2023-04-03T13:20:26;10.90;1.00
10294;DHT22;5192;50.328;7.610;2023-04-03T13:23:04;11.00;1.00
10294;DHT22;5192;50.328;7.610;2023-04-03T13:25:37;10.80;1.00
10294;DHT22;5192;50.328;7.610;2023-04-03T13:28:09;11.00;1.00
10294;DHT22;5192;50.328;7.610;2023-04-03T13:30:38;11.20;1.00
10294;DHT22;5192;50.328;7.610;2023-04-03T13:33:26;11.20;1.00
10294;DHT22;5192;50.328;7.610;2023-04-03T13:36:18;11.20;1.00
10294;DHT22;5192;50.328;7.610;2023-04-03T13:38:46;11.80;1.00
10294;DHT22;5192;50.328;7.610;2023-04-03T13:41:34;12.20;1.00
10294;DHT22;5192;50.328;7.610;2023-04-03T13:47:37;13.20;1.00
10294;DHT22;5192;50.328;7.610;2023-04-03T13:50:17;13.70;1.00
10294;DHT22;5192;50.328;7.610;2023-04-03T13:53:13;13.80;1.00
10294;DHT22;5192;50.328;7.610;2023-04-03T13:58:30;15.20;1.00
10294;DHT22;5192;50.328;7.610;2023-04-03T14:01:20;16.00;1.00
10294;DHT22;5192;50.328;7.610;2023-04-03T14:04:14;17.10;1.00
10294;DHT22;5192;50.328;7.610;2023-04-03T14:06:41;16.20;1.00
10294;DHT22;5192;50.328;7.610;2023-04-03T14:09:08;15.80;1.00
10294;DHT22;5192;50.328;7.610;2023-04-03T14:11:36;16.00;1.00
10294;DHT22;5192;50.328;7.610;2023-04-03T14:14:09;16.10;1.00
10294;DHT22;5192;50.328;7.610;2023-04-03T14:16:41;16.20;1.00
10294;DHT22;5192;50.328;7.610;2023-04-03T14:19:20;16.60;1.00
10294;DHT22;5192;50.328;7.610;2023-04-03T14:21:49;16.10;1.00
10294;DHT22;5192;50.328;7.610;2023-04-03T14:24:18;15.80;1.00
10294;DHT22;5192;50.328;7.610;2023-04-03T14:26:47;15.70;1.00
10294;DHT22;5192;50.328;7.610;2023-04-03T14:29:14;15.50;1.00
10294;DHT22;5192;50.328;7.610;2023-04-03T14:31:42;14.80;1.00
10294;DHT22;5192;50.328;7.610;2023-04-03T14:34:12;14.50;1.00
10294;DHT22;5192;50.328;7.610;2023-04-03T14:36:41;14.80;1.00
10294;DHT22;5192;50.328;7.610;2023-04-03T14:39:10;15.20;1.00
10294;DHT22;5192;50.328;7.610;2023-04-03T14:41:38;15.10;1.00
10294;DHT22;5192;50.328;7.610;2023-04-03T14:44:06;15.20;1.00
10294;DHT22;5192;50.328;7.610;2023-04-03T14:46:37;15.20;1.00
10294;DHT22;5192;50.328;7.610;2023-04-03T14:49:25;15.40;1.00
10294;DHT22;5192;50.328;7.610;2023-04-03T14:51:56;15.00;1.00
10294;DHT22;5192;50.328;7.610;2023-04-03T14:54:24;14.60;1.00
10294;DHT22;5192;50.328;7.610;2023-04-03T14:57:13;14.70;1.00
10294;DHT22;5192;50.328;7.610;2023-04-03T14:59:41;14.40;1.00
10294;DHT22;5192;50.328;7.610;2023-04-03T15:02:26;14.10;1.00
10294;DHT22;5192;50.328;7.610;2023-04-03T15:04:55;14.00;1.00
10294;DHT22;5192;50.328;7.610;2023-04-03T15:07:25;13.60;1.00
10294;DHT22;5192;50.328;7.610;2023-04-03T15:10:22;13.00;1.00
10294;DHT22;5192;50.328;7.610;2023-04-03T15:12:51;12.70;1.00
10294;DHT22;5192;50.328;7.610;2023-04-03T15:15:20;12.70;1.00
10294;DHT22;5192;50.328;7.610;2023-04-03T15:17:54;12.20;1.00
10294;DHT22;5192;50.328;7.610;2023-04-03T15:20:23;12.30;1.00
10294;DHT22;5192;50.328;7.610;2023-04-03T15:22:51;12.00;1.00
10294;DHT22;5192;50.328;7.610;2023-04-03T15:25:18;11.80;1.00
10294;DHT22;5192;50.328;7.610;2023-04-03T15:27:46;11.80;1.00
10294;DHT22;5192;50.328;7.610;2023-04-03T15:30:16;11.70;1.00
10294;DHT22;5192;50.328;7.610;2023-04-03T15:32:53;11.70;1.00
10294;DHT22;5192;50.328;7.610;2023-04-03T15:35:21;11.70;1.00
10294;DHT22;5192;50.328;7.610;2023-04-03T15:37:48;11.60;1.00
10294;DHT22;5192;50.328;7.610;2023-04-03T15:40:14;11.30;1.00
10294;DHT22;5192;50.328;7.610;2023-04-03T15:42:41;11.20;1.00
10294;DHT22;5192;50.328;7.610;2023-04-03T15:45:08;11.30;1.00
10294;DHT22;5192;50.328;7.610;2023-04-03T15:47:39;11.30;1.00
10294;DHT22;5192;50.328;7.610;2023-04-03T15:50:07;11.10;1.00
10294;DHT22;5192;50.328;7.610;2023-04-03T15:52:35;10.90;1.00
10294;DHT22;5192;50.328;7.610;2023-04-03T15:55:02;10.90;1.00
10294;DHT22;5192;50.328;7.610;2023-04-03T15:57:31;11.00;1.00
10294;DHT22;5192;50.328;7.610;2023-04-03T15:59:58;11.00;1.00
10294;DHT22;5192;50.328;7.610;2023-04-03T16:02:26;11.20;1.00
10294;DHT22;5192;50.328;7.610;2023-04-03T16:04:56;11.30;1.00
10294;DHT22;5192;50.328;7.610;2023-04-03T16:07:26;10.90;1.00
10294;DHT22;5192;50.328;7.610;2023-04-03T16:09:54;11.00;1.00
10294;DHT22;5192;50.328;7.610;2023-04-03T16:12:19;11.10;1.00
10294;DHT22;5192;50.328;7.610;2023-04-03T16:14:46;11.10;1.00
10294;DHT22;5192;50.328;7.610;2023-04-03T16:17:14;11.30;1.00
10294;DHT22;5192;50.328;7.610;2023-04-03T16:19:39;11.20;1.00
10294;DHT22;5192;50.328;7.610;2023-04-03T16:22:07;11.00;1.00
10294;DHT22;5192;50.328;7.610;2023-04-03T16:24:34;11.00;1.00
10294;DHT22;5192;50.328;7.610;2023-04-03T16:27:02;11.20;1.00
10294;DHT22;5192;50.328;7.610;2023-04-03T16:29:29;11.70;1.00
10294;DHT22;5192;50.328;7.610;2023-04-03T16:31:57;12.00;1.00
10294;DHT22;5192;50.328;7.610;2023-04-03T16:34:24;12.30;1.00
10294;DHT22;5192;50.328;7.610;2023-04-03T16:36:52;12.70;1.00
10294;DHT22;5192;50.328;7.610;2023-04-03T16:39:19;13.30;1.00
10294;DHT22;5192;50.328;7.610;2023-04-03T16:41:46;13.80;1.00
10294;DHT22;5192;50.328;7.610;2023-04-03T16:44:14;14.40;1.00
10294;DHT22;5192;50.328;7.610;2023-04-03T16:46:41;14.50;1.00
10294;DHT22;5192;50.328;7.610;2023-04-03T16:49:08;13.80;1.00
10294;DHT22;5192;50.328;7.610;2023-04-03T16:51:35;13.80;1.00
10294;DHT22;5192;50.328;7.610;2023-04-03T16:54:00;13.00;1.00
10294;DHT22;5192;50.328;7.610;2023-04-03T16:56:27;12.60;1.00
10294;DHT22;5192;50.328;7.610;2023-04-03T16:58:55;12.40;1.00
10294;DHT22;5192;50.328;7.610;2023-04-03T17:01:22;12.20;1.00
10294;DHT22;5192;50.328;7.610;2023-04-03T17:03:49;12.00;1.00
10294;DHT22;5192;50.328;7.610;2023-04-03T17:06:18;11.70;1.00
10294;DHT22;5192;50.328;7.610;2023-04-03T17:08:48;11.50;1.00
10294;DHT22;5192;50.328;7.610;2023-04-03T17:11:14;11.30;1.00
10294;DHT22;5192;50.328;7.610;2023-04-03T17:13:41;11.00;1.00
10294;DHT22;5192;50.328;7.610;2023-04-03T17:16:11;10.80;1.00
10294;DHT22;5192;50.328;7.610;2023-04-03T17:18:40;10.70;1.00
10294;DHT22;5192;50.328;7.610;2023-04-03T17:21:07;10.60;1.00
10294;DHT22;5192;50.328;7.610;2023-04-03T17:23:38;10.50;1.00
10294;DHT22;5192;50.328;7.610;2023-04-03T17:26:07;10.10;1.00
10294;DHT22;5192;50.328;7.610;2023-04-03T17:28:33;9.80;1.00
10294;DHT22;5192;50.328;7.610;2023-04-03T17:31:02;9.70;1.00
10294;DHT22;5192;50.328;7.610;2023-04-03T17:33:31;9.60;1.00
10294;DHT22;5192;50.328;7.610;2023-04-03T17:36:02;9.40;1.00
10294;DHT22;5192;50.328;7.610;2023-04-03T17:38:33;9.20;1.00
10294;DHT22;5192;50.328;7.610;2023-04-03T17:41:04;9.00;1.00
10294;DHT22;5192;50.328;7.610;2023-04-03T17:43:32;8.80;1.00
10294;DHT22;5192;50.328;7.610;2023-04-03T17:46:03;8.60;1.00
10294;DHT22;5192;50.328;7.610;2023-04-03T17:48:31;8.30;1.00
10294;DHT22;5192;50.328;7.610;2023-04-03T17:50:58;8.00;1.00
10294;DHT22;5192;50.328;7.610;2023-04-03T17:53:26;7.90;1.00
10294;DHT22;5192;50.328;7.610;2023-04-03T17:55:54;7.70;1.00
10294;DHT22;5192;50.328;7.610;2023-04-03T17:58:21;7.60;1.00